createdAt,value
2022-08-31T00:01:16.602Z,0.40
2022-08-31T00:03:57.304Z,0.40
2022-08-31T00:06:23.827Z,0.50
2022-08-31T00:08:50.342Z,0.43
2022-08-31T00:11:16.932Z,0.50
2022-08-31T00:13:43.704Z,0.50
2022-08-31T00:16:10.977Z,0.50
2022-08-31T00:18:38.145Z,0.40
2022-08-31T00:21:04.880Z,0.50
2022-08-31T00:23:31.411Z,0.75
2022-08-31T00:25:57.902Z,0.30
2022-08-31T00:28:24.655Z,0.50
2022-08-31T00:30:51.147Z,0.60
2022-08-31T00:33:17.835Z,0.40
2022-08-31T00:35:44.650Z,0.52
2022-08-31T00:38:11.475Z,0.57
2022-08-31T00:40:44.729Z,0.70
2022-08-31T00:43:13.057Z,0.60
2022-08-31T00:45:39.717Z,0.60
2022-08-31T00:48:06.290Z,0.40
2022-08-31T00:50:32.778Z,0.60
2022-08-31T00:53:00.326Z,0.52
2022-08-31T00:55:32.336Z,0.50
2022-08-31T00:58:01.611Z,0.50
2022-08-31T01:00:28.194Z,0.50
2022-08-31T01:02:55.789Z,0.60
2022-08-31T01:05:22.321Z,0.65
2022-08-31T01:07:48.878Z,0.60
2022-08-31T01:10:16.106Z,0.70
2022-08-31T01:12:42.598Z,0.60
2022-08-31T01:15:11.966Z,0.55
2022-08-31T01:17:38.693Z,0.60
2022-08-31T01:20:15.446Z,0.47
2022-08-31T01:23:03.467Z,0.50
2022-08-31T01:25:33.541Z,0.50
2022-08-31T01:28:01.087Z,0.50
2022-08-31T01:30:27.586Z,0.60
2022-08-31T01:32:54.257Z,0.47
2022-08-31T01:35:20.792Z,0.70
2022-08-31T01:37:47.484Z,0.60
2022-08-31T01:40:14.023Z,0.70
2022-08-31T01:42:40.634Z,0.70
2022-08-31T01:45:07.878Z,0.60
2022-08-31T01:47:34.395Z,0.55
2022-08-31T01:50:00.915Z,0.38
2022-08-31T01:52:27.956Z,0.50
2022-08-31T01:54:55.215Z,0.60
2022-08-31T01:57:23.940Z,0.50
2022-08-31T02:00:00.022Z,0.50
2022-08-31T02:02:26.565Z,0.57
2022-08-31T02:04:53.097Z,0.50
2022-08-31T02:07:19.578Z,0.40
2022-08-31T02:09:46.070Z,0.52
2022-08-31T02:12:12.783Z,0.50
2022-08-31T02:14:39.388Z,0.50
2022-08-31T02:17:05.882Z,0.50
2022-08-31T02:19:32.395Z,0.70
2022-08-31T02:21:59.161Z,0.60
2022-08-31T02:24:25.707Z,0.50
2022-08-31T02:26:53.976Z,0.50
2022-08-31T02:29:20.821Z,0.40
2022-08-31T02:31:47.358Z,0.55
2022-08-31T02:34:14.109Z,0.60
2022-08-31T02:36:42.841Z,0.40
2022-08-31T02:39:09.343Z,0.50
2022-08-31T02:41:36.386Z,0.63
2022-08-31T02:44:03.309Z,0.50
2022-08-31T02:46:29.878Z,0.68
2022-08-31T02:48:56.449Z,0.50
2022-08-31T02:51:22.945Z,0.50
2022-08-31T02:53:50.766Z,0.57
2022-08-31T02:56:17.272Z,0.50
2022-08-31T02:58:43.781Z,0.63
2022-08-31T03:01:10.431Z,0.60
2022-08-31T03:03:38.742Z,0.47
2022-08-31T03:06:05.730Z,0.52
2022-08-31T03:08:32.420Z,0.60
2022-08-31T03:10:58.930Z,0.77
2022-08-31T03:13:25.438Z,0.70
2022-08-31T03:15:52.313Z,0.35
2022-08-31T03:18:18.974Z,0.70
2022-08-31T03:20:45.472Z,0.52
2022-08-31T03:23:12.347Z,0.40
2022-08-31T03:25:39.839Z,0.32
2022-08-31T03:28:06.646Z,0.40
2022-08-31T03:30:33.198Z,0.52
2022-08-31T03:33:02.817Z,0.50
2022-08-31T03:35:29.815Z,0.52
2022-08-31T03:37:56.611Z,0.50
2022-08-31T03:40:23.181Z,0.40
2022-08-31T03:42:50.162Z,0.60
2022-08-31T03:45:16.841Z,0.60
2022-08-31T03:47:44.856Z,0.70
2022-08-31T03:50:11.818Z,0.60
2022-08-31T03:52:38.483Z,0.50
2022-08-31T03:55:05.461Z,0.40
2022-08-31T03:57:31.945Z,0.65
2022-08-31T03:59:58.489Z,0.60
2022-08-31T04:02:25.082Z,0.60
2022-08-31T04:04:54.677Z,0.60
2022-08-31T04:07:21.195Z,0.90
2022-08-31T04:09:47.836Z,0.45
2022-08-31T04:12:15.210Z,0.70
2022-08-31T04:14:41.846Z,0.50
2022-08-31T04:17:11.489Z,0.70
2022-08-31T04:19:38.825Z,0.63
2022-08-31T04:22:05.340Z,0.70
2022-08-31T04:24:32.174Z,0.50
2022-08-31T04:26:58.770Z,0.60
2022-08-31T04:29:25.316Z,0.70
2022-08-31T04:31:52.062Z,0.57
2022-08-31T04:34:18.611Z,0.50
2022-08-31T04:36:45.824Z,0.70
2022-08-31T04:39:12.326Z,0.70
2022-08-31T04:41:40.295Z,0.50
2022-08-31T04:44:06.997Z,0.60
2022-08-31T04:46:33.794Z,0.68
2022-08-31T04:49:00.303Z,0.50
2022-08-31T04:51:31.353Z,0.70
2022-08-31T04:53:58.181Z,0.40
2022-08-31T04:56:26.522Z,0.57
2022-08-31T04:58:54.948Z,0.52
2022-08-31T05:01:23.294Z,0.85
2022-08-31T05:03:52.867Z,0.85
2022-08-31T05:06:20.961Z,0.80
2022-08-31T05:08:47.525Z,0.80
2022-08-31T05:11:15.518Z,0.70
2022-08-31T05:13:42.019Z,1.00
2022-08-31T05:16:10.519Z,0.80
2022-08-31T05:18:37.924Z,0.88
2022-08-31T05:21:15.965Z,0.68
2022-08-31T05:23:42.574Z,0.80
2022-08-31T05:26:09.068Z,0.82
2022-08-31T05:28:35.707Z,0.70
2022-08-31T05:31:03.176Z,0.95
2022-08-31T05:33:29.838Z,0.88
2022-08-31T05:35:56.338Z,1.08
2022-08-31T05:38:22.823Z,1.10
2022-08-31T05:40:53.524Z,0.90
2022-08-31T05:43:20.352Z,1.13
2022-08-31T05:45:47.011Z,1.00
2022-08-31T05:48:13.492Z,1.13
2022-08-31T05:50:40.029Z,1.65
2022-08-31T05:53:06.671Z,1.20
2022-08-31T05:55:33.481Z,1.45
2022-08-31T05:58:00.410Z,1.48
2022-08-31T06:00:27.003Z,1.10
2022-08-31T06:02:54.048Z,1.25
2022-08-31T06:05:20.719Z,1.10
2022-08-31T06:07:47.236Z,1.60
2022-08-31T06:10:14.901Z,1.30
2022-08-31T06:12:42.377Z,1.58
2022-08-31T06:15:10.441Z,1.23
2022-08-31T06:17:37.395Z,1.13
2022-08-31T06:20:04.713Z,1.10
2022-08-31T06:22:31.239Z,1.20
2022-08-31T06:24:58.142Z,1.20
2022-08-31T06:27:24.901Z,1.00
2022-08-31T06:29:51.401Z,1.08
2022-08-31T06:32:17.906Z,1.33
2022-08-31T06:34:44.448Z,1.10
2022-08-31T06:37:18.364Z,1.00
2022-08-31T06:39:45.751Z,1.10
2022-08-31T06:42:12.551Z,1.25
2022-08-31T06:44:39.059Z,1.00
2022-08-31T06:47:06.492Z,1.30
2022-08-31T06:49:32.996Z,0.90
2022-08-31T06:52:00.890Z,1.10
2022-08-31T06:54:29.771Z,1.00
2022-08-31T06:56:57.911Z,0.80
2022-08-31T06:59:28.476Z,1.05
2022-08-31T07:01:56.165Z,0.90
2022-08-31T07:04:22.776Z,1.00
2022-08-31T07:06:49.288Z,1.10
2022-08-31T07:09:17.901Z,0.90
2022-08-31T07:11:46.030Z,1.00
2022-08-31T07:14:14.402Z,0.85
2022-08-31T07:16:41.424Z,0.88
2022-08-31T07:19:08.292Z,1.08
2022-08-31T07:21:39.646Z,1.10
2022-08-31T07:24:06.267Z,0.82
2022-08-31T07:26:36.396Z,0.52
2022-08-31T07:29:06.798Z,0.70
2022-08-31T07:31:46.554Z,0.65
2022-08-31T07:34:18.611Z,0.85
2022-08-31T07:37:03.658Z,0.80
2022-08-31T07:39:49.063Z,0.90
2022-08-31T07:42:21.414Z,1.05
2022-08-31T07:44:53.415Z,0.80
2022-08-31T07:47:20.601Z,0.88
2022-08-31T07:49:51.274Z,0.73
2022-08-31T07:52:23.582Z,1.20
2022-08-31T07:54:56.111Z,0.70
2022-08-31T07:57:25.769Z,0.60
2022-08-31T07:59:56.086Z,0.90
2022-08-31T08:02:23.537Z,0.60
2022-08-31T08:04:53.300Z,0.90
2022-08-31T08:07:21.515Z,0.80
2022-08-31T08:09:48.143Z,0.50
2022-08-31T08:12:15.192Z,0.90
2022-08-31T08:14:41.756Z,1.00
2022-08-31T08:17:08.412Z,0.80
2022-08-31T08:19:35.011Z,0.60
2022-08-31T08:22:02.860Z,0.70
2022-08-31T08:24:31.501Z,0.65
2022-08-31T08:26:58.566Z,0.50
2022-08-31T08:29:27.697Z,0.80
2022-08-31T08:31:56.301Z,0.60
2022-08-31T08:34:32.283Z,0.65
2022-08-31T08:36:59.525Z,0.55
2022-08-31T08:39:26.048Z,0.60
2022-08-31T08:41:52.623Z,0.70
2022-08-31T08:44:26.404Z,0.75
2022-08-31T08:47:00.065Z,0.60
2022-08-31T08:49:29.222Z,0.68
2022-08-31T08:52:04.173Z,0.60
2022-08-31T08:54:38.787Z,0.60
2022-08-31T08:57:14.239Z,0.70
2022-08-31T08:59:42.524Z,0.60
2022-08-31T09:02:11.938Z,0.70
2022-08-31T09:05:15.575Z,0.77
2022-08-31T09:08:05.133Z,0.68
2022-08-31T09:10:39.084Z,0.60
2022-08-31T09:13:19.935Z,0.52
2022-08-31T09:15:49.494Z,0.70
2022-08-31T09:18:57.236Z,0.70
2022-08-31T09:21:34.352Z,0.55
2022-08-31T09:24:08.448Z,0.77
2022-08-31T09:29:27.786Z,0.63
2022-08-31T09:32:07.011Z,0.60
2022-08-31T09:34:37.195Z,0.70
2022-08-31T09:37:21.399Z,0.80
2022-08-31T09:39:49.744Z,0.63
2022-08-31T09:42:30.869Z,0.70
2022-08-31T09:45:05.831Z,0.80
2022-08-31T09:47:55.872Z,0.60
2022-08-31T09:50:41.599Z,0.65
2022-08-31T09:53:27.072Z,0.77
2022-08-31T09:56:20.890Z,0.52
2022-08-31T09:58:55.104Z,0.50
2022-08-31T10:01:39.613Z,0.50
2022-08-31T10:04:15.935Z,0.90
2022-08-31T10:06:55.700Z,0.80
2022-08-31T10:09:36.143Z,0.90
2022-08-31T10:12:06.324Z,0.93
2022-08-31T10:15:05.767Z,1.05
2022-08-31T10:17:45.276Z,0.77
2022-08-31T10:20:16.516Z,0.80
2022-08-31T10:22:51.623Z,0.90
2022-08-31T10:25:22.592Z,0.60
2022-08-31T10:27:52.073Z,0.80
2022-08-31T10:30:44.876Z,0.80
2022-08-31T10:33:17.932Z,0.95
2022-08-31T10:35:55.467Z,0.70
2022-08-31T10:38:33.455Z,0.75
2022-08-31T10:41:10.389Z,0.98
2022-08-31T10:43:57.947Z,0.60
2022-08-31T10:46:24.503Z,0.93
2022-08-31T10:48:54.217Z,0.93
2022-08-31T10:51:31.085Z,0.68
2022-08-31T10:54:12.238Z,0.77
2022-08-31T10:56:59.248Z,0.60
2022-08-31T11:00:08.662Z,0.73
2022-08-31T11:02:46.265Z,0.50
2022-08-31T11:05:18.764Z,0.70
2022-08-31T11:08:12.197Z,0.68
2022-08-31T11:10:44.871Z,0.80
2022-08-31T11:13:39.955Z,0.75
2022-08-31T11:16:29.388Z,0.70
2022-08-31T11:19:32.517Z,0.57
2022-08-31T11:22:16.542Z,0.88
2022-08-31T11:25:24.883Z,0.80
2022-08-31T11:28:07.368Z,0.68
2022-08-31T11:30:38.564Z,0.70
2022-08-31T11:33:14.263Z,0.60
2022-08-31T11:35:49.928Z,0.60
2022-08-31T11:38:42.326Z,0.68
2022-08-31T11:41:12.067Z,0.60
2022-08-31T11:43:46.104Z,0.60
2022-08-31T11:48:55.292Z,0.50
2022-08-31T11:51:42.302Z,0.50
2022-08-31T11:54:22.712Z,0.63
2022-08-31T11:56:49.211Z,0.85
2022-08-31T11:59:29.018Z,0.50
2022-08-31T12:01:57.184Z,0.77
2022-08-31T12:04:41.943Z,0.70
2022-08-31T12:07:26.505Z,0.50
2022-08-31T12:10:27.472Z,0.40
2022-08-31T12:13:07.376Z,0.70
2022-08-31T12:15:39.946Z,0.65
2022-08-31T12:18:34.733Z,0.77
2022-08-31T12:21:39.018Z,0.50
2022-08-31T12:24:30.523Z,0.70
2022-08-31T12:27:15.574Z,0.65
2022-08-31T12:29:42.113Z,0.45
2022-08-31T12:32:17.795Z,0.68
2022-08-31T12:34:49.036Z,0.43
2022-08-31T12:37:21.831Z,0.50
2022-08-31T12:40:05.191Z,0.52
2022-08-31T12:42:33.365Z,0.50
2022-08-31T12:44:59.841Z,0.50
2022-08-31T12:47:38.170Z,0.60
2022-08-31T12:50:04.522Z,0.45
2022-08-31T12:52:36.775Z,0.70
2022-08-31T12:55:34.290Z,0.68
2022-08-31T12:58:35.021Z,0.60
2022-08-31T13:01:09.554Z,0.70
2022-08-31T13:03:38.257Z,0.40
2022-08-31T13:06:10.446Z,0.52
2022-08-31T13:08:39.579Z,0.57
2022-08-31T13:11:23.116Z,0.52
2022-08-31T13:13:50.628Z,0.32
2022-08-31T13:16:17.186Z,0.65
2022-08-31T13:18:43.775Z,0.60
2022-08-31T13:21:10.974Z,0.50
2022-08-31T13:23:48.075Z,0.40
2022-08-31T13:26:20.527Z,0.45
2022-08-31T13:28:55.050Z,0.60
2022-08-31T13:31:24.932Z,0.50
2022-08-31T13:33:51.599Z,0.40
2022-08-31T13:36:33.727Z,0.57
2022-08-31T13:39:16.754Z,0.40
2022-08-31T13:41:54.601Z,0.50
2022-08-31T13:44:21.406Z,0.57
2022-08-31T13:47:00.112Z,0.40
2022-08-31T13:49:35.341Z,0.60
2022-08-31T13:52:04.121Z,0.63
2022-08-31T13:54:32.673Z,0.50
2022-08-31T13:57:19.601Z,0.60
2022-08-31T13:59:46.307Z,0.50
2022-08-31T14:02:15.505Z,0.65
2022-08-31T14:04:48.540Z,0.45
2022-08-31T14:07:23.726Z,0.50
2022-08-31T14:10:18.072Z,0.50
2022-08-31T14:12:45.979Z,0.40
2022-08-31T14:15:17.535Z,0.50
2022-08-31T14:18:25.999Z,0.50
2022-08-31T14:21:26.639Z,0.50
2022-08-31T14:24:00.940Z,0.68
2022-08-31T14:26:34.611Z,0.55
2022-08-31T14:29:03.592Z,0.50
2022-08-31T14:31:31.353Z,0.50
2022-08-31T14:34:22.349Z,0.50
2022-08-31T14:36:59.073Z,0.70
2022-08-31T14:39:31.410Z,0.55
2022-08-31T14:42:21.774Z,0.77
2022-08-31T14:44:59.136Z,0.55
2022-08-31T14:47:38.729Z,0.45
2022-08-31T14:50:05.883Z,0.40
2022-08-31T14:52:34.593Z,0.68
2022-08-31T14:55:02.434Z,0.50
2022-08-31T14:57:30.336Z,0.60
2022-08-31T14:59:59.670Z,0.60
2022-08-31T15:02:27.434Z,0.40
2022-08-31T15:05:00.416Z,0.40
2022-08-31T15:07:30.773Z,0.60
2022-08-31T15:09:57.282Z,0.50
2022-08-31T15:12:24.128Z,0.65
2022-08-31T15:14:50.623Z,0.63
2022-08-31T15:17:19.010Z,0.63
2022-08-31T15:19:47.998Z,0.60
2022-08-31T15:22:15.897Z,0.40
2022-08-31T15:24:44.821Z,0.60
2022-08-31T15:27:13.510Z,0.43
2022-08-31T15:29:43.263Z,0.57
2022-08-31T15:32:10.336Z,0.60
2022-08-31T15:34:37.217Z,0.60
2022-08-31T15:37:04.970Z,0.52
2022-08-31T15:39:36.983Z,0.63
2022-08-31T15:42:10.190Z,0.50
2022-08-31T15:44:41.469Z,0.57
2022-08-31T15:47:27.750Z,0.80
2022-08-31T15:49:56.101Z,0.50
2022-08-31T15:52:24.673Z,0.70
2022-08-31T15:54:51.717Z,0.50
2022-08-31T15:57:18.581Z,0.40
2022-08-31T15:59:45.832Z,0.50
2022-08-31T16:02:13.332Z,0.52
2022-08-31T16:04:42.867Z,0.52
2022-08-31T16:07:11.099Z,0.50
2022-08-31T16:09:40.888Z,0.50
2022-08-31T16:12:12.053Z,0.60
2022-08-31T16:14:41.342Z,0.50
2022-08-31T16:17:09.461Z,0.60
2022-08-31T16:19:37.137Z,0.50
2022-08-31T16:22:08.128Z,0.52
2022-08-31T16:24:37.343Z,0.50
2022-08-31T16:27:08.926Z,0.50
2022-08-31T16:29:35.744Z,0.50
2022-08-31T16:32:02.605Z,0.40
2022-08-31T16:34:31.153Z,0.55
2022-08-31T16:36:57.820Z,0.45
2022-08-31T16:39:33.941Z,0.70
2022-08-31T16:42:05.035Z,0.50
2022-08-31T16:44:36.745Z,0.50
2022-08-31T16:47:04.173Z,0.60
2022-08-31T16:49:33.678Z,0.63
2022-08-31T16:52:03.342Z,0.50
2022-08-31T16:54:30.128Z,0.65
2022-08-31T16:56:57.694Z,0.50
2022-08-31T16:59:25.862Z,0.70
2022-08-31T17:01:52.514Z,0.70
2022-08-31T17:04:40.989Z,0.52
2022-08-31T17:07:06.875Z,0.70
2022-08-31T17:09:33.752Z,0.60
2022-08-31T17:12:01.894Z,0.90
2022-08-31T17:14:35.673Z,0.70
2022-08-31T17:17:06.723Z,0.60
2022-08-31T17:19:34.086Z,0.60
2022-08-31T17:22:03.322Z,0.80
2022-08-31T17:24:31.376Z,1.05
2022-08-31T17:26:59.739Z,0.63
2022-08-31T17:29:27.564Z,0.82
2022-08-31T17:31:55.898Z,0.65
2022-08-31T17:34:24.588Z,0.60
2022-08-31T17:36:51.258Z,0.80
2022-08-31T17:39:18.589Z,0.98
2022-08-31T17:41:45.667Z,1.00
2022-08-31T17:44:16.500Z,1.73
2022-08-31T17:46:47.521Z,4.35
2022-08-31T17:49:17.367Z,4.00
2022-08-31T17:51:45.089Z,3.97
2022-08-31T17:54:13.131Z,3.38
2022-08-31T17:56:47.487Z,2.20
2022-08-31T17:59:24.062Z,1.83
2022-08-31T18:01:52.385Z,1.20
2022-08-31T18:04:19.377Z,1.48
2022-08-31T18:06:46.517Z,1.00
2022-08-31T18:09:14.181Z,1.10
2022-08-31T18:11:46.191Z,0.85
2022-08-31T18:14:13.532Z,1.05
2022-08-31T18:16:41.213Z,1.10
2022-08-31T18:19:07.842Z,1.05
2022-08-31T18:21:34.669Z,1.60
2022-08-31T18:24:01.302Z,1.20
2022-08-31T18:26:34.944Z,1.17
2022-08-31T18:29:01.698Z,1.15
2022-08-31T18:31:30.928Z,1.27
2022-08-31T18:34:01.582Z,1.30
2022-08-31T18:36:28.438Z,1.20
2022-08-31T18:38:56.477Z,0.80
2022-08-31T18:41:42.845Z,0.80
2022-08-31T18:44:28.123Z,1.20
2022-08-31T18:46:57.570Z,1.00
2022-08-31T18:49:24.745Z,0.90
2022-08-31T18:51:52.720Z,0.95
2022-08-31T18:54:20.813Z,0.77
2022-08-31T18:56:48.262Z,0.90
2022-08-31T18:59:15.485Z,0.75
2022-08-31T19:01:43.353Z,0.93
2022-08-31T19:04:10.749Z,0.80
2022-08-31T19:06:37.464Z,0.90
2022-08-31T19:09:04.523Z,0.80
2022-08-31T19:11:31.091Z,1.00
2022-08-31T19:13:59.207Z,0.82
2022-08-31T19:16:28.909Z,0.80
2022-08-31T19:18:59.187Z,0.70
2022-08-31T19:21:30.264Z,0.73
2022-08-31T19:23:57.522Z,0.90
2022-08-31T19:26:29.967Z,0.70
2022-08-31T19:28:57.496Z,0.98
2022-08-31T19:31:24.975Z,0.85
2022-08-31T19:33:56.672Z,0.77
2022-08-31T19:36:24.389Z,0.50
2022-08-31T19:38:54.091Z,0.70
2022-08-31T19:41:24.729Z,0.70
2022-08-31T19:43:56.022Z,0.70
2022-08-31T19:46:32.847Z,0.73
2022-08-31T19:49:03.492Z,0.88
2022-08-31T19:51:31.419Z,0.73
2022-08-31T19:54:00.897Z,0.70
2022-08-31T19:56:30.923Z,0.77
2022-08-31T19:58:58.857Z,0.60
2022-08-31T20:01:28.234Z,0.60
2022-08-31T20:03:55.204Z,0.70
2022-08-31T20:06:22.462Z,0.80
2022-08-31T20:08:49.598Z,0.60
2022-08-31T20:11:21.471Z,0.68
2022-08-31T20:13:48.784Z,0.70
2022-08-31T20:16:15.526Z,0.60
2022-08-31T20:18:46.998Z,0.50
2022-08-31T20:21:17.502Z,0.40
2022-08-31T20:23:45.430Z,0.50
2022-08-31T20:26:12.230Z,0.60
2022-08-31T20:28:41.021Z,0.60
2022-08-31T20:31:09.406Z,0.60
2022-08-31T20:33:36.423Z,0.55
2022-08-31T20:36:18.982Z,0.50
2022-08-31T20:38:46.896Z,0.50
2022-08-31T20:41:14.176Z,0.55
2022-08-31T20:43:41.457Z,0.70
2022-08-31T20:46:31.133Z,0.68
2022-08-31T20:49:16.748Z,0.47
2022-08-31T20:51:44.192Z,0.60
2022-08-31T20:54:10.977Z,0.70
2022-08-31T20:56:39.130Z,0.70
2022-08-31T20:59:10.264Z,0.40
2022-08-31T21:01:37.598Z,0.60
2022-08-31T21:04:04.796Z,0.50
2022-08-31T21:06:31.549Z,0.50
2022-08-31T21:08:58.101Z,0.50
2022-08-31T21:11:24.601Z,0.50
2022-08-31T21:13:52.929Z,0.60
2022-08-31T21:16:19.877Z,0.50
2022-08-31T21:18:48.722Z,0.60
2022-08-31T21:21:16.421Z,0.50
2022-08-31T21:23:46.453Z,0.70
2022-08-31T21:26:24.347Z,0.40
2022-08-31T21:28:51.081Z,0.50
2022-08-31T21:31:28.648Z,0.73
2022-08-31T21:33:57.827Z,0.50
2022-08-31T21:36:26.476Z,0.50
2022-08-31T21:38:56.726Z,0.40
2022-08-31T21:41:25.500Z,0.63
2022-08-31T21:43:52.010Z,0.57
2022-08-31T21:46:23.157Z,0.47
2022-08-31T21:48:51.216Z,0.60
2022-08-31T21:51:25.469Z,0.38
2022-08-31T21:53:57.049Z,0.50
2022-08-31T21:56:24.627Z,0.30
2022-08-31T21:58:51.139Z,0.50
2022-08-31T22:01:20.456Z,0.40
2022-08-31T22:03:47.842Z,0.38
2022-08-31T22:06:21.971Z,0.47
2022-08-31T22:08:53.038Z,0.30
2022-08-31T22:11:21.295Z,0.40
2022-08-31T22:13:48.770Z,0.28
2022-08-31T22:16:19.478Z,0.45
2022-08-31T22:19:07.180Z,0.45
2022-08-31T22:21:34.607Z,0.40
2022-08-31T22:24:04.046Z,0.55
2022-08-31T22:26:32.073Z,0.38
2022-08-31T22:28:59.308Z,0.55
2022-08-31T22:31:27.252Z,0.30
2022-08-31T22:33:53.997Z,0.55
2022-08-31T22:36:31.731Z,0.40
2022-08-31T22:39:03.543Z,0.40
2022-08-31T22:41:32.691Z,0.30
2022-08-31T22:43:59.533Z,0.35
2022-08-31T22:46:26.101Z,0.38
2022-08-31T22:48:52.643Z,0.40
2022-08-31T22:51:19.325Z,0.50
2022-08-31T22:53:46.389Z,0.30
2022-08-31T22:56:21.760Z,0.40
2022-08-31T22:58:49.059Z,0.40
2022-08-31T23:01:23.150Z,0.50
2022-08-31T23:06:22.629Z,0.30
2022-08-31T23:08:52.945Z,0.40
2022-08-31T23:11:19.738Z,0.50
2022-08-31T23:13:55.448Z,0.40
2022-08-31T23:16:27.108Z,0.55
2022-08-31T23:18:57.590Z,0.45
2022-08-31T23:21:25.393Z,0.50
2022-08-31T23:23:53.021Z,0.43
2022-08-31T23:26:21.024Z,0.40
2022-08-31T23:28:47.534Z,0.50
2022-08-31T23:31:14.423Z,0.32
2022-08-31T23:33:46.986Z,0.40
2022-08-31T23:36:13.738Z,0.40
2022-08-31T23:38:42.603Z,0.43
2022-08-31T23:41:13.806Z,0.40
2022-08-31T23:43:40.480Z,0.40
2022-08-31T23:46:07.058Z,0.60
2022-08-31T23:48:33.675Z,0.60
2022-08-31T23:51:02.092Z,0.45
2022-08-31T23:53:28.603Z,0.32
2022-08-31T23:55:55.097Z,0.38
2022-08-31T23:58:25.765Z,0.40
